Upstream stations:
Downstream station:
SHEF ID: BFFO2 Cimarron River near Buffalo, OK
STATION TYPE:
Regulating: Stage = 6.00, Flow = 750
PRECIP STAGE RIV-FLOW BAT-LOAD
in ft cfs volt
Ccp-Rev Ccp-Rev Ccp-Rev Ccp-Rev
(US/Central)
01/16 00:00 0.00 3.16 8 12.65
01/16 01:00 0.00 3.16 8 12.65
01/16 02:00 0.00 3.26 13 12.57
01/16 03:00 0.00 3.17 8 12.57
01/16 04:00 0.00 3.16 8 12.49
01/16 05:00 0.00 3.39 24 12.49
01/16 06:00 0.00 3.07 4 12.41
01/16 07:00 0.00 3.22 11 12.41
01/16 08:00 0.00 3.07 4 12.41
01/16 09:00 0.00 3.04 3 13.21
01/16 10:00 0.00 3.05 3 13.53
01/16 11:00 0.00 3.10 5 13.60
01/16 12:00 0.00 3.13 6 13.60
01/16 13:00 0.00 3.18 9 13.68
01/16 14:00 0.00 3.20 10 13.60
01/16 15:00 0.00 3.23 11 13.53
01/16 16:00 0.00 3.34 20 13.53
01/16 17:00 0.00 3.30 16 13.60
01/16 18:00 0.00 3.30 16 13.29
01/16 19:00 0.00 3.29 16 12.97
01/16 20:00 0.00 3.27 14 12.89
01/16 21:00 0.00 3.26 13 12.81
01/16 22:00 0.00 3.29 16 12.81
01/16 23:00 0.00 3.31 17 12.73